createdAt,value
2022-09-20T00:02:11.914Z,100481.50
2022-09-20T00:05:23.400Z,100477.44
2022-09-20T00:08:19.446Z,100478.06
2022-09-20T00:11:28.707Z,100479.79
2022-09-20T00:14:55.260Z,100476.52
2022-09-20T00:18:21.882Z,100476.33
2022-09-20T00:21:49.384Z,100476.48
2022-09-20T00:25:13.086Z,100478.70
2022-09-20T00:28:40.443Z,100476.77
2022-09-20T00:31:57.349Z,100475.17
2022-09-20T00:35:31.912Z,100478.63
2022-09-20T00:38:01.869Z,100477.36
2022-09-20T00:41:29.565Z,100479.96
2022-09-20T00:44:56.609Z,100480.09
2022-09-20T00:48:26.152Z,100480.71
2022-09-20T00:51:53.826Z,100481.02
2022-09-20T00:55:03.402Z,100485.36
2022-09-20T00:58:30.098Z,100486.37
2022-09-20T01:01:39.273Z,100487.54
2022-09-20T01:04:57.166Z,100486.43
2022-09-20T01:08:05.940Z,100488.78
2022-09-20T01:11:33.344Z,100491.23
2022-09-20T01:14:50.374Z,100491.95
2022-09-20T01:18:16.808Z,100495.36
2022-09-20T01:21:44.223Z,100498.98
2022-09-20T01:25:10.944Z,100500.41
2022-09-20T01:28:42.327Z,100506.64
2022-09-20T01:32:13.028Z,100509.61
2022-09-20T01:35:29.141Z,100508.41
2022-09-20T01:39:04.391Z,100517.05
2022-09-20T01:42:31.931Z,100518.48
2022-09-20T01:46:17.066Z,100516.33
2022-09-20T01:50:00.158Z,100521.45
2022-09-20T01:52:54.159Z,100522.63
2022-09-20T01:56:29.964Z,100522.47
2022-09-20T01:59:45.450Z,100519.54
2022-09-20T02:03:14.608Z,100522.20
2022-09-20T02:06:33.624Z,100522.66
2022-09-20T02:10:11.724Z,100526.84
2022-09-20T02:13:53.751Z,100526.14
2022-09-20T02:17:10.763Z,100528.41
2022-09-20T02:20:40.708Z,100531.63
2022-09-20T02:24:17.839Z,100539.98
2022-09-20T02:27:55.165Z,100549.77
2022-09-20T02:31:27.735Z,100553.87
2022-09-20T02:34:52.324Z,100565.02
2022-09-20T02:38:23.900Z,100573.70
2022-09-20T02:41:49.159Z,100582.88
2022-09-20T02:45:35.227Z,100580.56
2022-09-20T02:48:46.615Z,100586.81
2022-09-20T02:52:36.319Z,100587.27
2022-09-20T02:56:14.303Z,100592.27
2022-09-20T02:59:47.383Z,100596.80
2022-09-20T03:03:06.561Z,100600.59
2022-09-20T03:06:43.017Z,100603.73
2022-09-20T03:10:26.383Z,100605.15
2022-09-20T03:14:00.820Z,100611.35
2022-09-20T03:17:28.850Z,100611.89
2022-09-20T03:21:07.836Z,100612.47
2022-09-20T03:24:45.044Z,100616.30
2022-09-20T03:28:07.552Z,100621.30
2022-09-20T03:31:46.269Z,100623.22
2022-09-20T03:35:12.032Z,100631.09
2022-09-20T03:38:47.745Z,100637.58
2022-09-20T03:42:10.998Z,100633.25
2022-09-20T03:45:31.907Z,100633.44
2022-09-20T03:49:07.357Z,100636.70
2022-09-20T03:52:43.167Z,100635.29
2022-09-20T03:56:22.905Z,100639.56
2022-09-20T04:00:01.321Z,100641.84
2022-09-20T04:04:04.915Z,100644.71
2022-09-20T04:07:47.265Z,100644.73
2022-09-20T04:11:32.852Z,100647.01
2022-09-20T04:14:56.445Z,100647.60
2022-09-20T04:18:26.102Z,100642.40
2022-09-20T04:22:02.611Z,100644.56
2022-09-20T04:25:35.701Z,100646.13
2022-09-20T04:28:45.320Z,100653.30
2022-09-20T04:32:05.696Z,100650.84
2022-09-20T04:35:32.296Z,100650.86
2022-09-20T04:39:00.374Z,100653.64
2022-09-20T04:42:24.648Z,100654.02
2022-09-20T04:46:22.290Z,100659.02
2022-09-20T04:49:47.355Z,100660.53
2022-09-20T04:53:17.148Z,100657.52
2022-09-20T04:56:34.051Z,100665.44
2022-09-20T05:00:10.336Z,100663.71
2022-09-20T05:03:32.466Z,100662.59
2022-09-20T05:07:07.693Z,100669.59
2022-09-20T05:10:31.626Z,100674.13
2022-09-20T05:14:08.376Z,100680.06
2022-09-20T05:17:42.921Z,100685.05
2022-09-20T05:21:15.608Z,100689.04
2022-09-20T05:25:04.673Z,100694.50
2022-09-20T05:28:30.594Z,100699.84
2022-09-20T05:32:04.754Z,100703.15
2022-09-20T05:35:31.219Z,100703.36
2022-09-20T05:39:25.545Z,100707.66
2022-09-20T05:42:54.468Z,100708.17
2022-09-20T05:46:27.588Z,100707.02
2022-09-20T05:49:41.281Z,100709.83
2022-09-20T05:53:11.586Z,100705.66
2022-09-20T05:57:04.747Z,100704.69
2022-09-20T06:00:41.894Z,100705.49
2022-09-20T06:04:15.451Z,100704.27
2022-09-20T06:07:25.858Z,100714.05
2022-09-20T06:10:52.624Z,100713.02
2022-09-20T06:14:41.864Z,100720.66
2022-09-20T06:18:42.092Z,100723.52
2022-09-20T06:22:17.374Z,100723.06
2022-09-20T06:25:50.589Z,100724.48
2022-09-20T06:29:10.983Z,100727.80
2022-09-20T06:32:38.681Z,100729.20
2022-09-20T06:35:58.903Z,100723.70
2022-09-20T06:39:31.119Z,100720.04
2022-09-20T06:42:50.867Z,100718.36
2022-09-20T06:46:18.608Z,100717.90
2022-09-20T06:49:39.359Z,100715.66
2022-09-20T06:53:11.469Z,100714.41
2022-09-20T06:56:39.046Z,100718.36
2022-09-20T07:00:06.449Z,100723.44
2022-09-20T07:03:33.115Z,100734.09
2022-09-20T07:06:59.972Z,100743.69
2022-09-20T07:10:06.937Z,100744.94
2022-09-20T07:13:33.912Z,100740.60
2022-09-20T07:17:03.712Z,100743.23
2022-09-20T07:20:23.884Z,100742.67
2022-09-20T07:23:55.371Z,100740.92
2022-09-20T07:27:21.998Z,100726.78
2022-09-20T07:30:48.802Z,100717.20
2022-09-20T07:33:59.875Z,100706.04
2022-09-20T07:37:19.815Z,100708.35
2022-09-20T07:40:50.023Z,100718.21
2022-09-20T07:44:16.665Z,100726.27
2022-09-20T07:47:44.421Z,100726.55
2022-09-20T07:50:51.848Z,100723.98
2022-09-20T07:54:17.955Z,100727.54
2022-09-20T07:57:15.778Z,100723.88
2022-09-20T08:00:25.328Z,100719.11
2022-09-20T08:03:35.761Z,100714.52
2022-09-20T08:07:04.043Z,100709.92
2022-09-20T08:10:30.909Z,100710.64
2022-09-20T08:14:12.834Z,100710.64
2022-09-20T08:17:21.237Z,100712.80
2022-09-20T08:20:48.027Z,100717.89
2022-09-20T08:24:20.866Z,100717.83
2022-09-20T08:27:47.746Z,100710.44
2022-09-20T08:31:04.515Z,100708.86
2022-09-20T08:34:31.417Z,100715.34
2022-09-20T08:37:48.923Z,100714.44
2022-09-20T08:41:16.071Z,100718.98
2022-09-20T08:44:57.521Z,100717.38
2022-09-20T08:48:24.993Z,100715.52
2022-09-20T08:51:32.409Z,100714.69
2022-09-20T08:54:35.499Z,100714.88
2022-09-20T08:58:09.034Z,100714.06
2022-09-20T09:01:18.847Z,100713.90
2022-09-20T09:04:47.420Z,100722.26
2022-09-20T09:07:51.769Z,100728.23
2022-09-20T09:11:18.526Z,100733.89
2022-09-20T09:15:18.175Z,100737.36
2022-09-20T09:18:31.794Z,100727.61
2022-09-20T09:21:55.325Z,100733.14
2022-09-20T09:25:13.542Z,100731.19
2022-09-20T09:28:56.758Z,100724.20
2022-09-20T09:32:15.599Z,100722.80
2022-09-20T09:35:42.786Z,100713.35
2022-09-20T09:39:19.187Z,100709.36
2022-09-20T09:43:02.240Z,100715.02
2022-09-20T09:46:34.769Z,100724.85
2022-09-20T09:49:21.502Z,100727.65
2022-09-20T09:52:56.688Z,100730.67
2022-09-20T09:56:23.470Z,100733.06
2022-09-20T09:59:34.128Z,100727.46
2022-09-20T10:03:19.979Z,100716.55
2022-09-20T10:06:54.203Z,100717.52
2022-09-20T10:10:33.783Z,100717.30
2022-09-20T10:14:14.445Z,100712.32
2022-09-20T10:17:48.509Z,100704.52
2022-09-20T10:21:15.814Z,100707.63
2022-09-20T10:24:54.595Z,100704.95
2022-09-20T10:28:19.269Z,100704.86
2022-09-20T10:31:54.861Z,100695.17
2022-09-20T10:35:43.318Z,100690.77
2022-09-20T10:38:36.967Z,100690.86
2022-09-20T10:42:17.907Z,100691.63
2022-09-20T10:49:27.389Z,100692.38
2022-09-20T10:52:49.641Z,100695.55
2022-09-20T10:56:38.273Z,100702.64
2022-09-20T11:00:30.299Z,100713.23
2022-09-20T11:04:30.850Z,100707.95
2022-09-20T11:08:20.919Z,100711.83
2022-09-20T11:11:37.529Z,100707.34
2022-09-20T11:14:55.441Z,100711.99
2022-09-20T11:18:11.718Z,100713.02
2022-09-20T11:21:44.609Z,100711.77
2022-09-20T11:25:14.843Z,100716.66
2022-09-20T11:28:45.167Z,100723.20
2022-09-20T11:32:24.979Z,100719.27
2022-09-20T11:35:54.837Z,100722.96
2022-09-20T11:39:24.959Z,100727.31
2022-09-20T11:42:26.096Z,100733.61
2022-09-20T11:45:52.752Z,100735.98
2022-09-20T11:49:20.398Z,100735.25
2022-09-20T11:53:02.096Z,100745.81
2022-09-20T11:56:31.686Z,100750.31
2022-09-20T11:59:58.963Z,100753.33
2022-09-20T12:03:26.167Z,100756.95
2022-09-20T12:07:09.778Z,100754.58
2022-09-20T12:10:32.938Z,100748.80
2022-09-20T12:13:59.697Z,100747.63
2022-09-20T12:17:24.522Z,100748.63
2022-09-20T12:20:40.932Z,100744.30
2022-09-20T12:24:21.668Z,100749.98
2022-09-20T12:28:06.898Z,100758.38
2022-09-20T12:31:33.778Z,100756.56
2022-09-20T12:34:57.296Z,100760.09
2022-09-20T12:38:27.144Z,100763.09
2022-09-20T12:42:08.859Z,100768.04
2022-09-20T12:45:41.296Z,100776.92
2022-09-20T12:49:10.141Z,100777.77
2022-09-20T12:52:35.439Z,100779.83
2022-09-20T12:55:55.028Z,100780.63
2022-09-20T12:59:22.371Z,100779.50
2022-09-20T13:02:23.487Z,100782.40
2022-09-20T13:05:43.647Z,100785.63
2022-09-20T13:09:16.827Z,100791.54
2022-09-20T13:12:43.577Z,100795.80
2022-09-20T13:15:37.795Z,100804.61
2022-09-20T13:18:57.157Z,100811.14
2022-09-20T13:22:24.126Z,100815.52
2022-09-20T13:25:54.241Z,100825.52
2022-09-20T13:29:33.337Z,100827.85
2022-09-20T13:33:02.922Z,100833.82
2022-09-20T13:36:21.590Z,100842.21
2022-09-20T13:39:52.410Z,100843.81
2022-09-20T13:43:24.057Z,100850.73
2022-09-20T13:46:40.792Z,100849.70
2022-09-20T13:50:17.254Z,100866.74
2022-09-20T13:53:47.501Z,100875.22
2022-09-20T13:57:14.474Z,100876.52
2022-09-20T14:00:33.481Z,100881.09
2022-09-20T14:04:02.684Z,100892.23
2022-09-20T14:07:31.519Z,100899.09
2022-09-20T14:11:08.193Z,100907.90
2022-09-20T14:14:27.022Z,100906.27
2022-09-20T14:17:47.548Z,100904.86
2022-09-20T14:21:15.267Z,100908.80
2022-09-20T14:25:06.861Z,100919.10
2022-09-20T14:28:33.097Z,100921.45
2022-09-20T14:32:00.999Z,100919.58
2022-09-20T14:35:28.440Z,100926.25
2022-09-20T14:38:57.334Z,100928.07
2022-09-20T14:42:18.729Z,100925.38
2022-09-20T14:45:23.438Z,100931.83
2022-09-20T14:48:46.749Z,100941.20
2022-09-20T14:52:14.400Z,100944.95
2022-09-20T14:55:41.275Z,100944.79
2022-09-20T14:59:07.183Z,100948.40
2022-09-20T15:02:37.463Z,100950.24
2022-09-20T15:05:45.584Z,100947.90
2022-09-20T15:09:12.602Z,100950.07
2022-09-20T15:12:19.294Z,100955.55
2022-09-20T15:15:46.360Z,100964.91
2022-09-20T15:19:17.455Z,100962.95
2022-09-20T15:22:44.126Z,100965.88
2022-09-20T15:26:10.860Z,100960.25
2022-09-20T15:29:30.211Z,100961.45
2022-09-20T15:32:49.607Z,100957.30
2022-09-20T15:36:17.735Z,100956.89
2022-09-20T15:39:45.782Z,100959.69
2022-09-20T15:43:13.910Z,100960.45
2022-09-20T15:46:22.310Z,100963.48
2022-09-20T15:49:52.254Z,100957.15
2022-09-20T15:53:07.743Z,100955.91
2022-09-20T15:56:34.529Z,100953.98
2022-09-20T15:59:52.193Z,100949.75
2022-09-20T16:03:14.501Z,100946.40
2022-09-20T16:06:41.126Z,100946.24
2022-09-20T16:09:46.339Z,100944.55
2022-09-20T16:13:13.265Z,100947.36
2022-09-20T16:16:43.616Z,100941.45
2022-09-20T16:20:13.795Z,100937.17
2022-09-20T16:23:34.020Z,100933.75
2022-09-20T16:27:01.692Z,100931.09
2022-09-20T16:30:19.291Z,100933.20
2022-09-20T16:33:55.237Z,100929.32
2022-09-20T16:37:11.165Z,100939.61
2022-09-20T16:40:38.258Z,100930.94
2022-09-20T16:43:51.236Z,100928.96
2022-09-20T16:47:18.204Z,100930.66
2022-09-20T16:50:14.018Z,100934.67
2022-09-20T16:53:44.261Z,100930.41
2022-09-20T16:57:04.331Z,100929.66
2022-09-20T17:00:15.912Z,100934.28
2022-09-20T17:03:44.715Z,100933.00
2022-09-20T17:06:47.568Z,100930.28
2022-09-20T17:10:04.983Z,100931.84
2022-09-20T17:13:32.300Z,100934.86
2022-09-20T17:17:10.912Z,100931.31
2022-09-20T17:20:38.391Z,100927.77
2022-09-20T17:24:00.396Z,100924.80
2022-09-20T17:27:22.232Z,100921.34
2022-09-20T17:30:30.585Z,100921.00
2022-09-20T17:33:56.961Z,100919.73
2022-09-20T17:37:23.752Z,100915.81
2022-09-20T17:40:33.520Z,100916.63
2022-09-20T17:44:01.072Z,100916.90
2022-09-20T17:47:27.671Z,100919.60
2022-09-20T17:50:40.558Z,100914.15
2022-09-20T17:54:07.007Z,100910.59
2022-09-20T17:57:35.039Z,100904.29
2022-09-20T18:00:51.694Z,100904.98
2022-09-20T18:04:12.174Z,100903.07
2022-09-20T18:07:35.534Z,100906.83
2022-09-20T18:10:57.369Z,100902.64
2022-09-20T18:14:24.931Z,100896.79
2022-09-20T18:17:54.588Z,100896.89
2022-09-20T18:21:21.269Z,100885.63
2022-09-20T18:24:41.993Z,100886.42
2022-09-20T18:28:11.149Z,100882.85
2022-09-20T18:31:44.104Z,100882.95
2022-09-20T18:35:01.632Z,100883.14
2022-09-20T18:38:03.452Z,100884.00
2022-09-20T18:41:38.669Z,100876.74
2022-09-20T18:44:56.117Z,100881.80
2022-09-20T18:48:13.081Z,100877.59
2022-09-20T18:51:39.173Z,100874.30
2022-09-20T18:54:53.498Z,100871.36
2022-09-20T18:58:20.316Z,100872.88
2022-09-20T19:01:41.120Z,100868.69
2022-09-20T19:05:19.847Z,100868.24
2022-09-20T19:08:22.248Z,100866.63
2022-09-20T19:11:51.241Z,100862.60
2022-09-20T19:15:20.154Z,100850.48
2022-09-20T19:18:33.782Z,100852.69
2022-09-20T19:22:15.706Z,100852.58
2022-09-20T19:25:55.027Z,100851.34
2022-09-20T19:29:14.757Z,100844.92
2022-09-20T19:32:41.647Z,100842.11
2022-09-20T19:36:07.370Z,100840.34
2022-09-20T19:39:36.918Z,100833.10
2022-09-20T19:43:21.689Z,100825.55
2022-09-20T19:47:01.866Z,100820.30
2022-09-20T19:50:29.206Z,100822.93
2022-09-20T19:53:46.709Z,100819.73
2022-09-20T19:57:18.249Z,100816.37
2022-09-20T20:00:24.454Z,100820.11
2022-09-20T20:03:52.484Z,100819.19
2022-09-20T20:07:26.116Z,100809.63
2022-09-20T20:10:54.638Z,100812.46
2022-09-20T20:14:40.163Z,100809.55
2022-09-20T20:18:12.244Z,100811.09
2022-09-20T20:21:41.277Z,100809.00
2022-09-20T20:25:17.260Z,100808.56
2022-09-20T20:28:43.266Z,100804.48
2022-09-20T20:31:56.216Z,100803.46
2022-09-20T20:35:13.198Z,100795.36
2022-09-20T20:38:43.079Z,100793.42
2022-09-20T20:42:03.963Z,100791.67
2022-09-20T20:45:19.968Z,100788.82
2022-09-20T20:48:48.525Z,100793.73
2022-09-20T20:52:16.529Z,100790.02
2022-09-20T20:55:43.624Z,100788.40
2022-09-20T20:58:56.917Z,100789.36
2022-09-20T21:01:37.042Z,100790.98
2022-09-20T21:04:38.564Z,100792.98
2022-09-20T21:07:55.330Z,100788.08
2022-09-20T21:11:02.808Z,100785.27
2022-09-20T21:14:30.373Z,100783.54
2022-09-20T21:17:58.168Z,100781.98
2022-09-20T21:21:24.930Z,100777.87
2022-09-20T21:24:44.680Z,100781.37
2022-09-20T21:27:54.728Z,100789.06
2022-09-20T21:31:20.269Z,100781.36
2022-09-20T21:34:47.639Z,100780.14
2022-09-20T21:38:07.582Z,100777.73
2022-09-20T21:41:35.198Z,100776.16
2022-09-20T21:44:51.879Z,100770.56
2022-09-20T21:48:18.834Z,100766.63
2022-09-20T21:51:46.635Z,100771.38
2022-09-20T21:55:13.385Z,100761.72
2022-09-20T21:58:21.387Z,100760.27
2022-09-20T22:01:48.429Z,100756.48
2022-09-20T22:05:15.982Z,100754.44
2022-09-20T22:08:26.917Z,100751.71
2022-09-20T22:11:59.461Z,100747.94
2022-09-20T22:15:18.830Z,100743.19
2022-09-20T22:18:45.598Z,100737.45
2022-09-20T22:22:17.871Z,100741.12
2022-09-20T22:25:24.301Z,100737.98
2022-09-20T22:28:53.046Z,100736.11
2022-09-20T22:32:15.925Z,100735.63
2022-09-20T22:35:32.472Z,100728.20
2022-09-20T22:38:49.358Z,100720.73
2022-09-20T22:41:49.106Z,100725.37
2022-09-20T22:45:13.058Z,100728.67
2022-09-20T22:48:25.627Z,100727.94
2022-09-20T22:51:33.695Z,100726.67
2022-09-20T22:54:34.773Z,100735.98
2022-09-20T22:57:46.133Z,100733.08
2022-09-20T23:01:05.342Z,100730.32
2022-09-20T23:04:24.780Z,100730.98
2022-09-20T23:07:44.674Z,100732.80
2022-09-20T23:10:44.396Z,100731.77
2022-09-20T23:14:03.936Z,100740.02
2022-09-20T23:17:20.583Z,100729.98
2022-09-20T23:20:27.132Z,100732.16
2022-09-20T23:23:04.565Z,100732.79
2022-09-20T23:26:31.900Z,100722.53
2022-09-20T23:29:48.532Z,100721.89
2022-09-20T23:32:55.120Z,100723.57
2022-09-20T23:36:11.312Z,100723.37
2022-09-20T23:39:28.532Z,100719.40
2022-09-20T23:42:46.549Z,100720.71
2022-09-20T23:46:17.070Z,100719.45
2022-09-20T23:49:19.652Z,100724.14
2022-09-20T23:52:47.641Z,100720.15
2022-09-20T23:56:15.800Z,100722.15
2022-09-20T23:59:43.320Z,100724.11
